Private Wetterstation Sandau
Wetterdaten: Januar 2012
Datum Temp. A. Feuchte A. Luftdruck Regen Wind Richtung Taupunkt Windchill
01.01.2012 8,6 C 94 % 1008,6 hPa 3,6 l/m 8,1 km/h (2 Bft) S-SO 7,6 C 7,3 C
02.01.2012 8,3 C 88 % 1008,9 hPa 4,1 l/m 12,3 km/h (3 Bft) W-SW 6,4 C 6,9 C
03.01.2012 6,9 C 83 % 1004,8 hPa 0,5 l/m 23,2 km/h (4 Bft) S-SW 4,1 C 3,6 C
04.01.2012 5,7 C 77 % 1005,5 hPa 3,1 l/m 20,9 km/h (4 Bft) W-SW 2,0 C 2,0 C
05.01.2012 4,7 C 85 % 981,4 hPa 15,0 l/m 23,4 km/h (4 Bft) W 2,4 C 0,3 C
06.01.2012 2,0 C 85 % 1011,6 hPa 1,0 l/m 14,3 km/h (3 Bft) NW -0,3 C -1,8 C
07.01.2012 5,4 C 89 % 1008,5 hPa 3,1 l/m 11,4 km/h (2 Bft) W-SW 3,7 C 3,0 C
08.01.2012 5,0 C 89 % 1015,6 hPa 1,0 l/m 7,9 km/h (2 Bft) W-NW 3,3 C 3,4 C
09.01.2012 5,6 C 91 % 1022,0 hPa 3,1 l/m 5,3 km/h (1 Bft) W-SW 4,2 C 4,5 C
10.01.2012 5,0 C 87 % 1029,9 hPa 0,0 l/m 11,1 km/h (2 Bft) W-NW 3,0 C 2,5 C
11.01.2012 7,8 C 88 % 1028,0 hPa 0,5 l/m 10,5 km/h (2 Bft) W-SW 5,9 C 6,0 C
12.01.2012 6,8 C 81 % 1014,2 hPa 0,0 l/m 21,6 km/h (4 Bft) W-SW 3,8 C 3,2 C
13.01.2012 3,3 C 83 % 1016,2 hPa 0,5 l/m 15,2 km/h (3 Bft) W-NW 0,6 C -0,4 C
14.01.2012 1,3 C 81 % 1023,0 hPa 0,0 l/m 6,2 km/h (2 Bft) NW -1,7 C -0,5 C
15.01.2012 0,5 C 82 % 1026,8 hPa 0,0 l/m 3,9 km/h (1 Bft) NW -2,3 C 0,0 C
16.01.2012 2,5 C 89 % 1026,7 hPa 0,0 l/m 7,7 km/h (2 Bft) W-NW 0,9 C 0,5 C
17.01.2012 2,2 C 83 % 1028,0 hPa 0,5 l/m 4,8 km/h (1 Bft) W -0,4 C 1,2 C
18.01.2012 2,3 C 82 % 1022,7 hPa 3,6 l/m 10,3 km/h (2 Bft) W-SW -0,6 C -0,2 C
19.01.2012 4,3 C 89 % 1010,2 hPa 6,7 l/m 13,3 km/h (3 Bft) W 2,7 C 1,5 C
20.01.2012 2,5 C 88 % 1008,3 hPa 2,6 l/m 12,2 km/h (2 Bft) W 0,8 C -0,5 C
21.01.2012 3,5 C 89 % 999,5 hPa 4,7 l/m 15,8 km/h (3 Bft) W 1,9 C -0,1 C
22.01.2012 4,2 C 88 % 999,3 hPa 3,6 l/m 12,4 km/h (3 Bft) W 2,3 C 1,3 C
23.01.2012 1,3 C 90 % 1011,3 hPa 1,0 l/m 1,7 km/h (1 Bft) W-SW -0,1 C 1,0 C
24.01.2012 0,5 C 91 % 1021,1 hPa 2,6 l/m 2,2 km/h (1 Bft) O -0,8 C 0,5 C
25.01.2012 -2,3 C 89 % 1026,7 hPa 0,0 l/m 3,1 km/h (1 Bft) O -4,0 C -2,3 C
26.01.2012 -2,2 C 83 % 1025,5 hPa 0,0 l/m 7,8 km/h (2 Bft) O -4,7 C -4,6 C
27.01.2012 -1,9 C 85 % 1027,5 hPa 0,0 l/m 10,4 km/h (2 Bft) O -4,0 C -5,1 C
28.01.2012 -3,7 C 83 % 1032,9 hPa 0,0 l/m 5,4 km/h (1 Bft) O -6,1 C -5,6 C
29.01.2012 -4,9 C 74 % 1034,2 hPa 0,0 l/m 12,2 km/h (2 Bft) O -8,9 C -9,6 C
30.01.2012 -6,0 C 66 % 1034,2 hPa 0,5 l/m 13,1 km/h (3 Bft) O -11,4 C -11,3 C
31.01.2012 -7,6 C 71 % 1035,4 hPa 0,0 l/m 5,5 km/h (1 Bft) O -11,9 C -9,4 C
Min-Datum 31.01.12 30.01.12 05.01.12 20 Tage 01.01.12 - 31.01.12 31.01.12
Min-Zeit 08:12 14:47 15:32 - 00:37 - 08:12 09:32
Minimum -9,9 C 55 % 975,8 hPa - 0,0 km/h (0 Bft) - -13,0 C -18,5 C
Max-Datum 02.01.12 01.01.12 31.01.12 05.01.12 05.01.12 - 02.01.12 02.01.12
Max-Zeit 05:07 09:47 22:02 00:57 08:47 - 05:07 05:07
Maximum 12,3 C 94 % 1036,6 hPa 15,0 l/m 45,7 km/h
W (6 Bft)
- 10,0 C 12,3 C
Durchschnitt 2,3 C 84 % 1017,7 hPa #61,6 l/m 10,8 km/h (2 Bft) O -0,1 C -0,1 C

Durchschnitt Minimum Temp.0,4 C
Durchschnitt Maximum Temp.4,2 C
(c) by David Heller